sensor_id;sensor_type;location;lat;lon;timestamp;P1;durP1;ratioP1;P2;durP2;ratioP2
78205;SDS011;67480;48.920;12.880;2023-12-20T00:01:17;9.55;;;8.07;;
78205;SDS011;67480;48.920;12.880;2023-12-20T00:03:42;12.00;;;9.85;;
78205;SDS011;67480;48.920;12.880;2023-12-20T00:06:08;12.75;;;8.98;;
78205;SDS011;67480;48.920;12.880;2023-12-20T00:08:34;12.93;;;9.77;;
78205;SDS011;67480;48.920;12.880;2023-12-20T00:10:59;10.30;;;8.88;;
78205;SDS011;67480;48.920;12.880;2023-12-20T00:13:24;10.70;;;8.98;;
78205;SDS011;67480;48.920;12.880;2023-12-20T00:15:50;11.60;;;9.98;;
78205;SDS011;67480;48.920;12.880;2023-12-20T00:18:15;10.68;;;9.57;;
78205;SDS011;67480;48.920;12.880;2023-12-20T00:20:40;10.63;;;9.05;;
78205;SDS011;67480;48.920;12.880;2023-12-20T00:23:06;11.27;;;9.35;;
78205;SDS011;67480;48.920;12.880;2023-12-20T00:25:32;11.73;;;9.88;;
78205;SDS011;67480;48.920;12.880;2023-12-20T00:27:58;11.57;;;9.75;;
78205;SDS011;67480;48.920;12.880;2023-12-20T00:30:24;11.30;;;9.43;;
78205;SDS011;67480;48.920;12.880;2023-12-20T00:32:49;10.88;;;9.40;;
78205;SDS011;67480;48.920;12.880;2023-12-20T00:35:15;12.15;;;9.40;;
78205;SDS011;67480;48.920;12.880;2023-12-20T00:37:42;11.65;;;9.13;;
78205;SDS011;67480;48.920;12.880;2023-12-20T00:40:08;10.13;;;8.90;;
78205;SDS011;67480;48.920;12.880;2023-12-20T00:42:34;11.63;;;9.68;;
78205;SDS011;67480;48.920;12.880;2023-12-20T00:44:59;12.15;;;10.00;;
78205;SDS011;67480;48.920;12.880;2023-12-20T00:47:25;12.88;;;10.55;;
78205;SDS011;67480;48.920;12.880;2023-12-20T00:49:51;26.23;;;19.05;;
78205;SDS011;67480;48.920;12.880;2023-12-20T00:52:16;18.58;;;13.77;;
78205;SDS011;67480;48.920;12.880;2023-12-20T00:54:45;16.30;;;12.88;;
78205;SDS011;67480;48.920;12.880;2023-12-20T00:57:10;16.23;;;12.43;;
78205;SDS011;67480;48.920;12.880;2023-12-20T00:59:36;14.73;;;12.80;;
78205;SDS011;67480;48.920;12.880;2023-12-20T01:02:01;15.98;;;11.73;;
78205;SDS011;67480;48.920;12.880;2023-12-20T01:04:27;13.43;;;10.82;;
78205;SDS011;67480;48.920;12.880;2023-12-20T01:06:54;12.55;;;10.50;;
78205;SDS011;67480;48.920;12.880;2023-12-20T01:09:20;13.63;;;11.02;;
78205;SDS011;67480;48.920;12.880;2023-12-20T01:11:48;11.43;;;10.23;;
78205;SDS011;67480;48.920;12.880;2023-12-20T01:14:14;13.95;;;11.32;;
78205;SDS011;67480;48.920;12.880;2023-12-20T01:16:39;14.82;;;10.98;;
78205;SDS011;67480;48.920;12.880;2023-12-20T01:19:04;12.90;;;10.80;;
78205;SDS011;67480;48.920;12.880;2023-12-20T01:21:30;12.50;;;10.57;;
78205;SDS011;67480;48.920;12.880;2023-12-20T01:23:55;14.68;;;11.32;;
78205;SDS011;67480;48.920;12.880;2023-12-20T01:26:20;13.68;;;11.20;;
78205;SDS011;67480;48.920;12.880;2023-12-20T01:28:46;11.80;;;10.60;;
78205;SDS011;67480;48.920;12.880;2023-12-20T01:31:11;14.18;;;11.13;;
78205;SDS011;67480;48.920;12.880;2023-12-20T01:33:36;13.73;;;10.85;;
78205;SDS011;67480;48.920;12.880;2023-12-20T01:36:03;14.80;;;11.10;;
78205;SDS011;67480;48.920;12.880;2023-12-20T01:38:29;14.10;;;11.27;;
78205;SDS011;67480;48.920;12.880;2023-12-20T01:40:54;12.82;;;10.52;;
78205;SDS011;67480;48.920;12.880;2023-12-20T01:43:20;12.60;;;10.85;;
78205;SDS011;67480;48.920;12.880;2023-12-20T01:45:46;11.00;;;9.50;;
78205;SDS011;67480;48.920;12.880;2023-12-20T01:48:12;14.63;;;10.05;;
78205;SDS011;67480;48.920;12.880;2023-12-20T01:50:38;11.43;;;9.55;;
78205;SDS011;67480;48.920;12.880;2023-12-20T01:53:05;12.40;;;10.35;;
78205;SDS011;67480;48.920;12.880;2023-12-20T01:55:34;11.88;;;9.88;;
78205;SDS011;67480;48.920;12.880;2023-12-20T01:58:01;13.43;;;10.35;;
78205;SDS011;67480;48.920;12.880;2023-12-20T02:00:27;14.38;;;10.80;;
78205;SDS011;67480;48.920;12.880;2023-12-20T02:02:54;14.35;;;10.65;;
78205;SDS011;67480;48.920;12.880;2023-12-20T02:05:20;12.70;;;9.85;;
78205;SDS011;67480;48.920;12.880;2023-12-20T02:07:46;14.00;;;10.10;;
78205;SDS011;67480;48.920;12.880;2023-12-20T02:10:12;12.80;;;10.55;;
78205;SDS011;67480;48.920;12.880;2023-12-20T02:12:38;12.63;;;10.07;;
78205;SDS011;67480;48.920;12.880;2023-12-20T02:15:03;12.85;;;10.18;;
78205;SDS011;67480;48.920;12.880;2023-12-20T02:17:30;11.50;;;10.40;;
78205;SDS011;67480;48.920;12.880;2023-12-20T02:19:57;14.38;;;10.70;;
78205;SDS011;67480;48.920;12.880;2023-12-20T02:22:22;12.27;;;10.27;;
78205;SDS011;67480;48.920;12.880;2023-12-20T02:24:47;12.50;;;9.93;;
78205;SDS011;67480;48.920;12.880;2023-12-20T02:27:13;12.88;;;10.50;;
78205;SDS011;67480;48.920;12.880;2023-12-20T02:29:40;15.75;;;11.15;;
78205;SDS011;67480;48.920;12.880;2023-12-20T02:32:05;12.48;;;11.18;;
78205;SDS011;67480;48.920;12.880;2023-12-20T02:34:31;12.68;;;10.82;;
78205;SDS011;67480;48.920;12.880;2023-12-20T02:36:56;12.55;;;10.63;;
78205;SDS011;67480;48.920;12.880;2023-12-20T02:39:22;14.05;;;11.07;;
78205;SDS011;67480;48.920;12.880;2023-12-20T02:41:47;13.10;;;10.48;;
78205;SDS011;67480;48.920;12.880;2023-12-20T02:44:13;13.75;;;10.95;;
78205;SDS011;67480;48.920;12.880;2023-12-20T02:46:39;12.75;;;10.15;;
78205;SDS011;67480;48.920;12.880;2023-12-20T02:49:04;12.60;;;10.45;;
78205;SDS011;67480;48.920;12.880;2023-12-20T02:51:30;13.80;;;11.68;;
78205;SDS011;67480;48.920;12.880;2023-12-20T02:53:56;13.68;;;9.77;;
78205;SDS011;67480;48.920;12.880;2023-12-20T02:56:21;15.30;;;12.15;;
78205;SDS011;67480;48.920;12.880;2023-12-20T02:58:46;13.00;;;11.10;;
78205;SDS011;67480;48.920;12.880;2023-12-20T03:01:12;13.88;;;10.15;;
78205;SDS011;67480;48.920;12.880;2023-12-20T03:03:37;16.20;;;11.45;;
78205;SDS011;67480;48.920;12.880;2023-12-20T03:06:02;12.75;;;10.75;;
78205;SDS011;67480;48.920;12.880;2023-12-20T03:08:28;15.30;;;12.10;;
78205;SDS011;67480;48.920;12.880;2023-12-20T03:10:53;13.60;;;11.43;;
78205;SDS011;67480;48.920;12.880;2023-12-20T03:13:19;15.13;;;11.48;;
78205;SDS011;67480;48.920;12.880;2023-12-20T03:15:45;14.55;;;10.95;;
78205;SDS011;67480;48.920;12.880;2023-12-20T03:18:10;16.35;;;12.00;;
78205;SDS011;67480;48.920;12.880;2023-12-20T03:20:36;14.98;;;11.63;;
78205;SDS011;67480;48.920;12.880;2023-12-20T03:23:01;16.65;;;11.18;;
78205;SDS011;67480;48.920;12.880;2023-12-20T03:25:26;16.55;;;11.93;;
78205;SDS011;67480;48.920;12.880;2023-12-20T03:27:52;14.48;;;12.20;;
78205;SDS011;67480;48.920;12.880;2023-12-20T03:30:18;15.48;;;11.88;;
78205;SDS011;67480;48.920;12.880;2023-12-20T03:32:43;17.45;;;12.70;;
78205;SDS011;67480;48.920;12.880;2023-12-20T03:35:09;16.20;;;12.13;;
78205;SDS011;67480;48.920;12.880;2023-12-20T03:37:35;16.60;;;12.40;;
78205;SDS011;67480;48.920;12.880;2023-12-20T03:40:01;13.48;;;11.27;;
78205;SDS011;67480;48.920;12.880;2023-12-20T03:42:26;15.55;;;11.65;;
78205;SDS011;67480;48.920;12.880;2023-12-20T03:44:52;16.67;;;12.00;;
78205;SDS011;67480;48.920;12.880;2023-12-20T03:47:17;12.80;;;11.32;;
78205;SDS011;67480;48.920;12.880;2023-12-20T03:49:42;13.00;;;11.02;;
78205;SDS011;67480;48.920;12.880;2023-12-20T03:52:08;14.25;;;11.15;;
78205;SDS011;67480;48.920;12.880;2023-12-20T03:54:34;15.48;;;12.27;;
78205;SDS011;67480;48.920;12.880;2023-12-20T03:57:00;15.43;;;12.30;;
78205;SDS011;67480;48.920;12.880;2023-12-20T03:59:25;18.35;;;12.25;;
78205;SDS011;67480;48.920;12.880;2023-12-20T04:01:50;14.90;;;11.80;;
78205;SDS011;67480;48.920;12.880;2023-12-20T04:04:16;13.68;;;11.32;;
78205;SDS011;67480;48.920;12.880;2023-12-20T04:06:41;14.88;;;12.00;;
78205;SDS011;67480;48.920;12.880;2023-12-20T04:09:07;13.55;;;12.07;;
78205;SDS011;67480;48.920;12.880;2023-12-20T04:11:34;17.40;;;10.55;;
78205;SDS011;67480;48.920;12.880;2023-12-20T04:13:59;11.38;;;10.13;;
78205;SDS011;67480;48.920;12.880;2023-12-20T04:16:25;11.70;;;10.27;;
78205;SDS011;67480;48.920;12.880;2023-12-20T04:18:51;11.70;;;9.80;;
78205;SDS011;67480;48.920;12.880;2023-12-20T04:21:16;14.32;;;11.25;;
78205;SDS011;67480;48.920;12.880;2023-12-20T04:23:43;13.55;;;10.43;;
78205;SDS011;67480;48.920;12.880;2023-12-20T04:26:08;14.18;;;10.52;;
78205;SDS011;67480;48.920;12.880;2023-12-20T04:28:34;11.23;;;9.25;;
78205;SDS011;67480;48.920;12.880;2023-12-20T04:30:59;14.82;;;10.10;;
78205;SDS011;67480;48.920;12.880;2023-12-20T04:33:25;12.73;;;10.13;;
78205;SDS011;67480;48.920;12.880;2023-12-20T04:35:50;12.25;;;9.50;;
78205;SDS011;67480;48.920;12.880;2023-12-20T04:38:16;12.27;;;9.10;;
78205;SDS011;67480;48.920;12.880;2023-12-20T04:40:41;11.75;;;9.00;;
78205;SDS011;67480;48.920;12.880;2023-12-20T04:43:07;11.65;;;9.10;;
78205;SDS011;67480;48.920;12.880;2023-12-20T04:45:33;11.60;;;9.63;;
78205;SDS011;67480;48.920;12.880;2023-12-20T04:47:59;11.18;;;9.30;;
78205;SDS011;67480;48.920;12.880;2023-12-20T04:50:24;11.80;;;9.20;;
78205;SDS011;67480;48.920;12.880;2023-12-20T04:52:50;11.90;;;10.23;;
78205;SDS011;67480;48.920;12.880;2023-12-20T04:55:16;12.25;;;9.48;;
78205;SDS011;67480;48.920;12.880;2023-12-20T04:57:41;11.52;;;9.93;;
78205;SDS011;67480;48.920;12.880;2023-12-20T05:00:09;12.18;;;9.70;;
78205;SDS011;67480;48.920;12.880;2023-12-20T05:02:35;14.77;;;9.90;;
78205;SDS011;67480;48.920;12.880;2023-12-20T05:05:01;12.43;;;9.63;;
78205;SDS011;67480;48.920;12.880;2023-12-20T05:07:26;11.52;;;9.95;;
78205;SDS011;67480;48.920;12.880;2023-12-20T05:09:51;11.25;;;8.80;;
78205;SDS011;67480;48.920;12.880;2023-12-20T05:12:17;11.38;;;8.90;;
78205;SDS011;67480;48.920;12.880;2023-12-20T05:14:42;10.80;;;9.40;;
78205;SDS011;67480;48.920;12.880;2023-12-20T05:17:07;9.77;;;8.70;;
78205;SDS011;67480;48.920;12.880;2023-12-20T05:19:33;11.45;;;9.65;;
78205;SDS011;67480;48.920;12.880;2023-12-20T05:22:01;14.23;;;11.02;;
78205;SDS011;67480;48.920;12.880;2023-12-20T05:24:27;13.77;;;9.48;;
78205;SDS011;67480;48.920;12.880;2023-12-20T05:26:52;15.55;;;11.30;;
78205;SDS011;67480;48.920;12.880;2023-12-20T05:29:18;18.42;;;12.13;;
78205;SDS011;67480;48.920;12.880;2023-12-20T05:31:43;14.07;;;11.32;;
78205;SDS011;67480;48.920;12.880;2023-12-20T05:34:10;13.70;;;10.48;;
78205;SDS011;67480;48.920;12.880;2023-12-20T05:36:35;12.98;;;9.70;;
78205;SDS011;67480;48.920;12.880;2023-12-20T05:39:01;12.88;;;11.40;;
78205;SDS011;67480;48.920;12.880;2023-12-20T05:41:28;13.52;;;11.52;;
78205;SDS011;67480;48.920;12.880;2023-12-20T05:43:53;14.93;;;11.68;;
78205;SDS011;67480;48.920;12.880;2023-12-20T05:46:19;14.82;;;11.82;;
78205;SDS011;67480;48.920;12.880;2023-12-20T05:48:44;15.27;;;12.02;;
78205;SDS011;67480;48.920;12.880;2023-12-20T05:51:13;15.85;;;12.82;;
78205;SDS011;67480;48.920;12.880;2023-12-20T05:53:38;15.90;;;12.35;;
78205;SDS011;67480;48.920;12.880;2023-12-20T05:56:04;16.88;;;13.43;;
78205;SDS011;67480;48.920;12.880;2023-12-20T05:58:29;15.82;;;13.90;;
78205;SDS011;67480;48.920;12.880;2023-12-20T06:00:55;14.30;;;12.80;;
78205;SDS011;67480;48.920;12.880;2023-12-20T06:03:20;16.40;;;13.38;;
78205;SDS011;67480;48.920;12.880;2023-12-20T06:05:46;16.02;;;12.80;;
78205;SDS011;67480;48.920;12.880;2023-12-20T06:08:11;15.80;;;13.10;;
78205;SDS011;67480;48.920;12.880;2023-12-20T06:10:37;17.90;;;13.23;;
78205;SDS011;67480;48.920;12.880;2023-12-20T06:13:02;17.27;;;13.55;;
78205;SDS011;67480;48.920;12.880;2023-12-20T06:15:29;16.27;;;12.93;;
78205;SDS011;67480;48.920;12.880;2023-12-20T06:17:54;15.93;;;13.77;;
78205;SDS011;67480;48.920;12.880;2023-12-20T06:20:22;15.68;;;13.07;;
78205;SDS011;67480;48.920;12.880;2023-12-20T06:22:47;17.45;;;14.38;;
78205;SDS011;67480;48.920;12.880;2023-12-20T06:25:12;15.75;;;13.55;;
78205;SDS011;67480;48.920;12.880;2023-12-20T06:27:38;16.77;;;13.25;;
78205;SDS011;67480;48.920;12.880;2023-12-20T06:30:03;17.23;;;14.40;;
78205;SDS011;67480;48.920;12.880;2023-12-20T06:32:29;15.05;;;12.93;;
78205;SDS011;67480;48.920;12.880;2023-12-20T06:34:55;16.77;;;13.90;;
78205;SDS011;67480;48.920;12.880;2023-12-20T06:37:20;16.70;;;13.75;;
78205;SDS011;67480;48.920;12.880;2023-12-20T06:39:46;18.25;;;14.65;;
78205;SDS011;67480;48.920;12.880;2023-12-20T06:42:11;17.60;;;14.63;;
78205;SDS011;67480;48.920;12.880;2023-12-20T06:44:37;19.05;;;14.75;;
78205;SDS011;67480;48.920;12.880;2023-12-20T06:47:03;16.05;;;13.13;;
78205;SDS011;67480;48.920;12.880;2023-12-20T06:49:29;16.75;;;13.60;;
78205;SDS011;67480;48.920;12.880;2023-12-20T06:51:54;17.33;;;14.32;;
78205;SDS011;67480;48.920;12.880;2023-12-20T06:54:22;15.73;;;13.48;;
78205;SDS011;67480;48.920;12.880;2023-12-20T06:56:47;14.93;;;12.05;;
78205;SDS011;67480;48.920;12.880;2023-12-20T06:59:13;15.60;;;12.32;;
78205;SDS011;67480;48.920;12.880;2023-12-20T07:01:38;14.48;;;11.40;;
78205;SDS011;67480;48.920;12.880;2023-12-20T07:04:03;16.05;;;12.60;;
78205;SDS011;67480;48.920;12.880;2023-12-20T07:06:29;16.63;;;12.77;;
78205;SDS011;67480;48.920;12.880;2023-12-20T07:08:54;13.45;;;11.45;;
78205;SDS011;67480;48.920;12.880;2023-12-20T07:11:19;14.98;;;11.32;;
78205;SDS011;67480;48.920;12.880;2023-12-20T07:13:45;11.77;;;10.55;;
78205;SDS011;67480;48.920;12.880;2023-12-20T07:16:10;13.15;;;10.63;;
78205;SDS011;67480;48.920;12.880;2023-12-20T07:18:39;16.73;;;11.35;;
78205;SDS011;67480;48.920;12.880;2023-12-20T07:21:07;12.63;;;11.27;;
78205;SDS011;67480;48.920;12.880;2023-12-20T07:23:33;12.68;;;10.00;;
78205;SDS011;67480;48.920;12.880;2023-12-20T07:25:58;12.90;;;10.63;;
78205;SDS011;67480;48.920;12.880;2023-12-20T07:28:24;11.93;;;9.60;;
78205;SDS011;67480;48.920;12.880;2023-12-20T07:30:50;14.15;;;11.10;;
78205;SDS011;67480;48.920;12.880;2023-12-20T07:33:15;11.02;;;8.80;;
78205;SDS011;67480;48.920;12.880;2023-12-20T07:35:41;12.55;;;9.90;;
78205;SDS011;67480;48.920;12.880;2023-12-20T07:38:06;12.68;;;9.52;;
78205;SDS011;67480;48.920;12.880;2023-12-20T07:40:31;10.88;;;9.38;;
78205;SDS011;67480;48.920;12.880;2023-12-20T07:42:57;10.23;;;8.68;;
78205;SDS011;67480;48.920;12.880;2023-12-20T07:45:23;10.68;;;8.93;;
78205;SDS011;67480;48.920;12.880;2023-12-20T07:47:48;12.32;;;10.45;;
78205;SDS011;67480;48.920;12.880;2023-12-20T07:50:15;11.38;;;9.38;;
78205;SDS011;67480;48.920;12.880;2023-12-20T07:52:41;12.32;;;10.23;;
78205;SDS011;67480;48.920;12.880;2023-12-20T07:55:06;12.70;;;11.02;;
78205;SDS011;67480;48.920;12.880;2023-12-20T07:57:32;13.43;;;11.05;;
78205;SDS011;67480;48.920;12.880;2023-12-20T07:59:57;12.75;;;10.48;;
78205;SDS011;67480;48.920;12.880;2023-12-20T08:02:23;11.73;;;10.10;;
78205;SDS011;67480;48.920;12.880;2023-12-20T08:04:49;10.73;;;9.63;;
78205;SDS011;67480;48.920;12.880;2023-12-20T08:07:14;12.40;;;10.38;;
78205;SDS011;67480;48.920;12.880;2023-12-20T08:09:39;12.52;;;11.13;;
78205;SDS011;67480;48.920;12.880;2023-12-20T08:12:05;12.50;;;9.85;;
78205;SDS011;67480;48.920;12.880;2023-12-20T08:14:30;12.15;;;10.40;;
78205;SDS011;67480;48.920;12.880;2023-12-20T08:16:56;11.38;;;10.18;;
78205;SDS011;67480;48.920;12.880;2023-12-20T08:19:22;11.07;;;9.68;;
78205;SDS011;67480;48.920;12.880;2023-12-20T08:21:47;11.85;;;10.48;;
78205;SDS011;67480;48.920;12.880;2023-12-20T08:24:12;12.85;;;10.48;;
78205;SDS011;67480;48.920;12.880;2023-12-20T08:26:38;12.07;;;10.75;;
78205;SDS011;67480;48.920;12.880;2023-12-20T08:29:03;11.60;;;9.85;;
78205;SDS011;67480;48.920;12.880;2023-12-20T08:31:29;12.82;;;10.30;;
78205;SDS011;67480;48.920;12.880;2023-12-20T08:33:54;12.38;;;9.60;;
78205;SDS011;67480;48.920;12.880;2023-12-20T08:36:21;12.00;;;9.30;;
78205;SDS011;67480;48.920;12.880;2023-12-20T08:38:48;10.35;;;8.80;;
78205;SDS011;67480;48.920;12.880;2023-12-20T08:41:13;10.23;;;9.07;;
78205;SDS011;67480;48.920;12.880;2023-12-20T08:43:39;12.10;;;9.57;;
78205;SDS011;67480;48.920;12.880;2023-12-20T08:46:05;10.68;;;9.57;;
78205;SDS011;67480;48.920;12.880;2023-12-20T08:48:31;11.57;;;9.10;;
78205;SDS011;67480;48.920;12.880;2023-12-20T08:50:56;12.80;;;9.98;;
78205;SDS011;67480;48.920;12.880;2023-12-20T08:53:22;10.65;;;9.38;;
78205;SDS011;67480;48.920;12.880;2023-12-20T08:55:47;12.02;;;9.07;;
78205;SDS011;67480;48.920;12.880;2023-12-20T08:58:13;9.35;;;8.32;;
78205;SDS011;67480;48.920;12.880;2023-12-20T09:00:39;9.27;;;8.27;;
78205;SDS011;67480;48.920;12.880;2023-12-20T09:03:04;9.27;;;8.30;;
78205;SDS011;67480;48.920;12.880;2023-12-20T09:05:30;8.63;;;7.65;;
78205;SDS011;67480;48.920;12.880;2023-12-20T09:07:56;9.70;;;8.70;;
78205;SDS011;67480;48.920;12.880;2023-12-20T09:10:21;8.40;;;7.60;;
78205;SDS011;67480;48.920;12.880;2023-12-20T09:12:51;10.60;;;9.02;;
78205;SDS011;67480;48.920;12.880;2023-12-20T09:15:19;9.95;;;8.80;;
78205;SDS011;67480;48.920;12.880;2023-12-20T09:17:44;9.15;;;7.88;;
78205;SDS011;67480;48.920;12.880;2023-12-20T09:20:10;8.63;;;7.53;;
78205;SDS011;67480;48.920;12.880;2023-12-20T09:22:38;8.80;;;7.88;;
78205;SDS011;67480;48.920;12.880;2023-12-20T09:25:04;8.85;;;7.75;;
78205;SDS011;67480;48.920;12.880;2023-12-20T09:27:30;9.43;;;8.45;;
78205;SDS011;67480;48.920;12.880;2023-12-20T09:29:55;8.50;;;7.70;;
78205;SDS011;67480;48.920;12.880;2023-12-20T09:32:21;9.10;;;8.20;;
78205;SDS011;67480;48.920;12.880;2023-12-20T09:34:47;15.50;;;12.00;;
78205;SDS011;67480;48.920;12.880;2023-12-20T09:37:13;11.13;;;10.02;;
78205;SDS011;67480;48.920;12.880;2023-12-20T09:39:38;11.95;;;9.80;;
78205;SDS011;67480;48.920;12.880;2023-12-20T09:42:04;12.57;;;10.18;;
78205;SDS011;67480;48.920;12.880;2023-12-20T09:44:30;10.30;;;9.20;;
78205;SDS011;67480;48.920;12.880;2023-12-20T09:46:57;14.05;;;9.75;;
78205;SDS011;67480;48.920;12.880;2023-12-20T09:49:22;10.13;;;9.13;;
78205;SDS011;67480;48.920;12.880;2023-12-20T09:51:52;10.25;;;8.88;;
78205;SDS011;67480;48.920;12.880;2023-12-20T09:54:19;10.85;;;8.68;;
78205;SDS011;67480;48.920;12.880;2023-12-20T09:56:46;9.73;;;8.45;;
78205;SDS011;67480;48.920;12.880;2023-12-20T09:59:11;9.77;;;8.57;;
78205;SDS011;67480;48.920;12.880;2023-12-20T10:01:37;8.98;;;7.82;;
78205;SDS011;67480;48.920;12.880;2023-12-20T10:04:08;10.93;;;8.45;;
78205;SDS011;67480;48.920;12.880;2023-12-20T10:06:40;8.57;;;7.65;;
78205;SDS011;67480;48.920;12.880;2023-12-20T10:09:10;10.32;;;8.77;;
78205;SDS011;67480;48.920;12.880;2023-12-20T10:11:36;9.52;;;8.15;;
78205;SDS011;67480;48.920;12.880;2023-12-20T10:14:03;8.85;;;7.47;;
78205;SDS011;67480;48.920;12.880;2023-12-20T10:16:29;8.70;;;7.65;;
78205;SDS011;67480;48.920;12.880;2023-12-20T10:18:54;8.00;;;7.20;;
78205;SDS011;67480;48.920;12.880;2023-12-20T10:21:21;8.60;;;7.10;;
78205;SDS011;67480;48.920;12.880;2023-12-20T10:23:48;8.02;;;7.22;;
78205;SDS011;67480;48.920;12.880;2023-12-20T10:26:21;7.43;;;6.45;;
78205;SDS011;67480;48.920;12.880;2023-12-20T10:28:52;9.88;;;7.10;;
78205;SDS011;67480;48.920;12.880;2023-12-20T10:31:28;6.88;;;5.78;;
78205;SDS011;67480;48.920;12.880;2023-12-20T10:33:56;6.30;;;5.70;;
78205;SDS011;67480;48.920;12.880;2023-12-20T10:36:25;6.68;;;6.00;;
78205;SDS011;67480;48.920;12.880;2023-12-20T10:38:52;6.75;;;6.00;;
78205;SDS011;67480;48.920;12.880;2023-12-20T10:41:28;5.47;;;4.97;;
78205;SDS011;67480;48.920;12.880;2023-12-20T10:46:24;5.78;;;5.18;;
78205;SDS011;67480;48.920;12.880;2023-12-20T10:48:51;6.35;;;5.10;;
78205;SDS011;67480;48.920;12.880;2023-12-20T10:51:22;5.90;;;4.95;;
78205;SDS011;67480;48.920;12.880;2023-12-20T10:53:49;4.90;;;4.40;;
78205;SDS011;67480;48.920;12.880;2023-12-20T10:56:16;5.47;;;4.93;;
78205;SDS011;67480;48.920;12.880;2023-12-20T10:58:49;6.65;;;5.18;;
78205;SDS011;67480;48.920;12.880;2023-12-20T11:01:16;4.90;;;4.40;;
78205;SDS011;67480;48.920;12.880;2023-12-20T11:03:50;5.50;;;4.53;;
78205;SDS011;67480;48.920;12.880;2023-12-20T11:09:06;4.40;;;4.00;;
78205;SDS011;67480;48.920;12.880;2023-12-20T11:14:54;4.82;;;4.30;;
78205;SDS011;67480;48.920;12.880;2023-12-20T11:17:22;4.60;;;4.20;;
78205;SDS011;67480;48.920;12.880;2023-12-20T11:22:17;4.60;;;4.13;;
78205;SDS011;67480;48.920;12.880;2023-12-20T11:24:44;4.30;;;3.90;;
78205;SDS011;67480;48.920;12.880;2023-12-20T11:27:12;4.82;;;4.43;;
78205;SDS011;67480;48.920;12.880;2023-12-20T11:29:38;5.55;;;4.10;;
78205;SDS011;67480;48.920;12.880;2023-12-20T11:32:50;4.57;;;4.10;;
78205;SDS011;67480;48.920;12.880;2023-12-20T11:34:50;4.80;;;4.30;;
78205;SDS011;67480;48.920;12.880;2023-12-20T11:37:17;4.43;;;4.03;;
78205;SDS011;67480;48.920;12.880;2023-12-20T11:39:44;4.70;;;4.30;;
78205;SDS011;67480;48.920;12.880;2023-12-20T11:42:10;4.72;;;4.32;;
78205;SDS011;67480;48.920;12.880;2023-12-20T11:44:36;4.10;;;3.70;;
78205;SDS011;67480;48.920;12.880;2023-12-20T11:47:02;4.45;;;3.85;;
78205;SDS011;67480;48.920;12.880;2023-12-20T11:49:28;5.82;;;4.13;;
78205;SDS011;67480;48.920;12.880;2023-12-20T11:51:55;3.72;;;3.42;;
78205;SDS011;67480;48.920;12.880;2023-12-20T11:54:21;4.95;;;3.90;;
78205;SDS011;67480;48.920;12.880;2023-12-20T11:56:47;4.43;;;3.88;;
78205;SDS011;67480;48.920;12.880;2023-12-20T11:59:15;3.75;;;3.33;;
78205;SDS011;67480;48.920;12.880;2023-12-20T12:01:47;4.13;;;3.30;;
78205;SDS011;67480;48.920;12.880;2023-12-20T12:04:14;3.60;;;3.30;;
78205;SDS011;67480;48.920;12.880;2023-12-20T12:06:40;3.67;;;3.38;;
78205;SDS011;67480;48.920;12.880;2023-12-20T12:09:06;3.47;;;3.17;;
78205;SDS011;67480;48.920;12.880;2023-12-20T12:11:31;3.35;;;3.05;;
78205;SDS011;67480;48.920;12.880;2023-12-20T12:13:57;3.35;;;3.08;;
78205;SDS011;67480;48.920;12.880;2023-12-20T12:16:22;4.50;;;3.38;;
78205;SDS011;67480;48.920;12.880;2023-12-20T12:18:57;4.45;;;3.08;;
78205;SDS011;67480;48.920;12.880;2023-12-20T12:21:22;3.17;;;2.88;;
78205;SDS011;67480;48.920;12.880;2023-12-20T12:23:48;5.82;;;3.50;;
78205;SDS011;67480;48.920;12.880;2023-12-20T12:26:13;4.43;;;3.95;;
78205;SDS011;67480;48.920;12.880;2023-12-20T12:28:42;4.78;;;4.22;;
78205;SDS011;67480;48.920;12.880;2023-12-20T12:31:17;5.85;;;4.65;;
78205;SDS011;67480;48.920;12.880;2023-12-20T12:33:42;4.43;;;3.97;;
78205;SDS011;67480;48.920;12.880;2023-12-20T12:36:09;6.38;;;3.95;;
78205;SDS011;67480;48.920;12.880;2023-12-20T12:38:36;4.53;;;4.07;;
78205;SDS011;67480;48.920;12.880;2023-12-20T12:41:01;4.97;;;3.85;;
78205;SDS011;67480;48.920;12.880;2023-12-20T12:43:27;3.97;;;3.55;;
78205;SDS011;67480;48.920;12.880;2023-12-20T12:45:53;5.03;;;3.20;;
78205;SDS011;67480;48.920;12.880;2023-12-20T12:48:18;4.25;;;3.50;;
78205;SDS011;67480;48.920;12.880;2023-12-20T12:50:45;3.38;;;3.08;;
78205;SDS011;67480;48.920;12.880;2023-12-20T12:53:11;5.50;;;3.35;;
78205;SDS011;67480;48.920;12.880;2023-12-20T12:55:36;3.60;;;2.83;;
78205;SDS011;67480;48.920;12.880;2023-12-20T12:58:02;5.13;;;2.78;;
78205;SDS011;67480;48.920;12.880;2023-12-20T13:00:27;5.57;;;3.08;;
78205;SDS011;67480;48.920;12.880;2023-12-20T13:02:53;3.30;;;2.85;;
78205;SDS011;67480;48.920;12.880;2023-12-20T13:05:18;3.30;;;2.55;;
78205;SDS011;67480;48.920;12.880;2023-12-20T13:07:43;5.55;;;2.97;;
78205;SDS011;67480;48.920;12.880;2023-12-20T13:10:10;4.15;;;2.83;;
78205;SDS011;67480;48.920;12.880;2023-12-20T13:12:36;5.45;;;3.10;;
78205;SDS011;67480;48.920;12.880;2023-12-20T13:15:01;4.47;;;3.67;;
78205;SDS011;67480;48.920;12.880;2023-12-20T13:17:28;4.15;;;3.63;;
78205;SDS011;67480;48.920;12.880;2023-12-20T13:19:54;5.82;;;3.55;;
78205;SDS011;67480;48.920;12.880;2023-12-20T13:22:20;4.13;;;3.20;;
78205;SDS011;67480;48.920;12.880;2023-12-20T13:24:45;3.67;;;3.22;;
78205;SDS011;67480;48.920;12.880;2023-12-20T13:27:10;4.28;;;3.17;;
78205;SDS011;67480;48.920;12.880;2023-12-20T13:29:36;5.13;;;3.60;;
78205;SDS011;67480;48.920;12.880;2023-12-20T13:32:01;4.88;;;3.20;;
78205;SDS011;67480;48.920;12.880;2023-12-20T13:34:28;4.43;;;2.97;;
78205;SDS011;67480;48.920;12.880;2023-12-20T13:36:54;3.47;;;3.15;;
78205;SDS011;67480;48.920;12.880;2023-12-20T13:39:19;6.03;;;2.60;;
78205;SDS011;67480;48.920;12.880;2023-12-20T13:41:45;4.60;;;2.55;;
78205;SDS011;67480;48.920;12.880;2023-12-20T13:44:10;5.20;;;2.75;;
78205;SDS011;67480;48.920;12.880;2023-12-20T13:46:37;5.40;;;2.90;;
78205;SDS011;67480;48.920;12.880;2023-12-20T13:49:02;6.45;;;2.92;;
78205;SDS011;67480;48.920;12.880;2023-12-20T13:51:28;3.75;;;2.60;;
78205;SDS011;67480;48.920;12.880;2023-12-20T13:53:53;6.32;;;2.30;;
78205;SDS011;67480;48.920;12.880;2023-12-20T13:56:19;4.65;;;2.95;;
78205;SDS011;67480;48.920;12.880;2023-12-20T13:58:45;3.92;;;2.20;;
78205;SDS011;67480;48.920;12.880;2023-12-20T14:01:11;4.35;;;2.40;;
78205;SDS011;67480;48.920;12.880;2023-12-20T14:03:37;4.60;;;2.45;;
78205;SDS011;67480;48.920;12.880;2023-12-20T14:06:02;4.07;;;2.53;;
78205;SDS011;67480;48.920;12.880;2023-12-20T14:08:28;5.05;;;2.80;;
78205;SDS011;67480;48.920;12.880;2023-12-20T14:10:54;5.57;;;2.50;;
78205;SDS011;67480;48.920;12.880;2023-12-20T14:13:19;3.13;;;2.22;;
78205;SDS011;67480;48.920;12.880;2023-12-20T14:15:46;5.80;;;2.50;;
78205;SDS011;67480;48.920;12.880;2023-12-20T14:18:12;4.55;;;2.83;;
78205;SDS011;67480;48.920;12.880;2023-12-20T14:20:40;6.18;;;3.13;;
78205;SDS011;67480;48.920;12.880;2023-12-20T14:23:07;4.82;;;2.22;;
78205;SDS011;67480;48.920;12.880;2023-12-20T14:25:34;3.65;;;2.28;;